createdAt,value
2022-10-15T05:50:13.970Z,98069.28
2022-10-15T05:53:28.095Z,98067.66
2022-10-15T05:56:42.882Z,98050.44
2022-10-15T05:59:52.746Z,98047.78
2022-10-15T06:03:05.009Z,98058.81
2022-10-15T06:06:21.055Z,98062.22
2022-10-15T06:09:30.942Z,98069.16
2022-10-15T06:12:40.993Z,98074.00
2022-10-15T06:15:53.262Z,98070.63
2022-10-15T06:19:03.429Z,98078.38
2022-10-15T06:22:14.620Z,98079.19
2022-10-15T06:25:24.540Z,98089.53
2022-10-15T06:28:38.455Z,98084.13
2022-10-15T06:31:48.340Z,98085.25
2022-10-15T06:34:58.179Z,98093.06
2022-10-15T06:38:17.708Z,98100.03
2022-10-15T06:41:27.611Z,98088.81
2022-10-15T06:44:40.782Z,98092.31
2022-10-15T06:47:50.646Z,98100.28
2022-10-15T06:51:04.649Z,98100.47
2022-10-15T06:54:18.692Z,98094.81
2022-10-15T06:57:31.958Z,98100.59
2022-10-15T07:00:41.896Z,98116.53
2022-10-15T07:03:52.193Z,98110.03
2022-10-15T07:07:07.855Z,98112.66
2022-10-15T09:01:23.765Z,98162.56
2022-10-15T09:04:43.285Z,98169.78
2022-10-15T09:08:00.256Z,98166.34
2022-10-15T09:11:20.297Z,98169.66
2022-10-15T09:14:35.745Z,98172.78
2022-10-15T09:17:55.211Z,98163.34
2022-10-15T09:21:07.628Z,98171.91
2022-10-15T09:24:23.679Z,98167.75
2022-10-15T09:27:38.103Z,98160.66
2022-10-15T09:30:52.150Z,98165.38
2022-10-15T09:34:10.591Z,98157.41
2022-10-15T09:37:29.018Z,98160.44
2022-10-15T09:40:53.803Z,98164.25
2022-10-15T09:44:07.242Z,98160.59
2022-10-15T09:47:25.594Z,98160.75
2022-10-15T09:50:51.159Z,98160.84
2022-10-15T09:54:10.728Z,98167.69
2022-10-15T09:57:23.642Z,98179.13
2022-10-15T10:00:59.291Z,98180.00
2022-10-15T10:04:34.746Z,98175.47
2022-10-15T10:07:48.828Z,98170.75
2022-10-15T10:11:00.897Z,98171.34
2022-10-15T10:14:24.780Z,98173.47
2022-10-15T10:17:34.707Z,98174.97
2022-10-15T10:20:54.875Z,98170.47
2022-10-15T10:24:25.828Z,98161.88
2022-10-15T10:27:43.036Z,98159.91
2022-10-15T10:31:03.505Z,98158.97
2022-10-15T10:34:18.439Z,98154.47
2022-10-15T10:37:31.310Z,98152.19
2022-10-15T10:40:42.678Z,98151.31
2022-10-15T10:43:56.617Z,98152.41
2022-10-15T10:47:13.243Z,98159.53
2022-10-15T10:50:31.862Z,98157.38
2022-10-15T10:53:55.209Z,98156.50
2022-10-15T10:57:12.947Z,98150.03
2022-10-15T11:00:36.247Z,98149.38
2022-10-15T11:03:48.475Z,98149.63
2022-10-15T11:07:03.932Z,98166.94
2022-10-15T11:10:22.608Z,98148.00
2022-10-15T11:13:49.205Z,98153.44
2022-10-15T11:17:04.650Z,98145.91
2022-10-15T11:20:35.265Z,98137.38
2022-10-15T11:24:05.600Z,98128.16
2022-10-15T11:27:36.977Z,98139.59
2022-10-15T11:30:58.022Z,98145.72
2022-10-15T11:34:27.181Z,98144.41
2022-10-15T11:37:47.645Z,98147.16
2022-10-15T11:41:19.416Z,98145.84
2022-10-15T11:44:39.946Z,98152.97
2022-10-15T11:47:58.174Z,98147.00
2022-10-15T11:51:23.669Z,98138.78
2022-10-15T11:54:39.182Z,98135.66
2022-10-15T11:57:55.000Z,98148.88
2022-10-15T12:01:18.018Z,98142.44
2022-10-15T12:04:35.318Z,98138.81
2022-10-15T12:07:47.333Z,98141.06
2022-10-15T12:11:13.967Z,98131.19
2022-10-15T12:14:29.282Z,98135.16
2022-10-15T12:17:56.660Z,98129.16
2022-10-15T12:24:54.813Z,98112.31
2022-10-15T12:28:07.008Z,98114.50
2022-10-15T12:31:29.089Z,98119.47
2022-10-15T12:34:43.219Z,98112.88
2022-10-15T12:37:53.301Z,98095.44
2022-10-15T12:41:09.888Z,98107.00
2022-10-15T12:44:23.944Z,98102.06
2022-10-15T12:47:47.922Z,98114.06
2022-10-15T12:51:24.574Z,98101.63
2022-10-15T12:54:42.443Z,98104.19
2022-10-15T12:57:56.227Z,98096.25
2022-10-15T13:01:10.949Z,98093.88
2022-10-15T13:04:23.522Z,98087.97
2022-10-15T13:07:38.652Z,98092.34
2022-10-15T13:10:55.011Z,98092.91
2022-10-15T13:14:19.891Z,98085.19
2022-10-15T13:17:32.824Z,98089.28
2022-10-15T13:20:45.446Z,98081.09
2022-10-15T13:23:55.732Z,98084.81
2022-10-15T13:27:16.214Z,98093.38
2022-10-15T13:30:28.634Z,98093.91
2022-10-15T13:33:42.483Z,98098.72
2022-10-15T13:36:54.235Z,98097.72
2022-10-15T13:40:08.000Z,98112.22
2022-10-15T13:43:20.254Z,98109.50
2022-10-15T13:46:34.410Z,98103.81
2022-10-15T13:49:44.261Z,98111.25
2022-10-15T13:52:58.743Z,98124.00
2022-10-15T13:56:24.712Z,98129.19
2022-10-15T13:59:34.604Z,98121.47
2022-10-15T14:03:15.542Z,98113.78
2022-10-15T14:06:27.591Z,98104.91
2022-10-15T14:09:47.006Z,98120.31
2022-10-15T14:12:57.010Z,98121.03
2022-10-15T14:16:19.086Z,98119.47
2022-10-15T14:19:38.247Z,98107.06
2022-10-15T14:23:17.721Z,98115.56
2022-10-15T14:26:30.133Z,98115.25
2022-10-15T14:29:43.022Z,98127.09
2022-10-15T14:32:52.971Z,98128.31
2022-10-15T14:36:13.331Z,98125.72
2022-10-15T14:39:29.919Z,98121.56
2022-10-15T14:42:42.084Z,98133.41
2022-10-15T14:46:00.796Z,98123.13
2022-10-15T14:49:22.694Z,98124.91
2022-10-15T14:52:37.460Z,98127.19
2022-10-15T14:55:52.406Z,98117.06
2022-10-15T14:59:03.981Z,98136.63
2022-10-15T15:02:17.724Z,98125.31
2022-10-15T15:05:29.128Z,98130.28
2022-10-15T15:08:42.637Z,98127.53
2022-10-15T15:11:52.614Z,98126.00
2022-10-15T15:15:05.193Z,98130.91
2022-10-15T15:18:22.414Z,98134.03
2022-10-15T15:21:34.331Z,98125.53
2022-10-15T15:24:45.690Z,98134.38
2022-10-15T15:27:55.781Z,98132.72
2022-10-15T15:31:08.648Z,98132.78
2022-10-15T15:34:18.822Z,98132.47
2022-10-15T15:37:30.295Z,98130.94
2022-10-15T15:40:42.345Z,98124.41
2022-10-15T15:43:53.585Z,98132.97
2022-10-15T15:47:06.572Z,98130.13
2022-10-15T15:50:17.747Z,98135.16
2022-10-15T15:53:27.580Z,98144.81
2022-10-15T15:59:53.982Z,98146.31
2022-10-15T16:03:03.967Z,98145.97
2022-10-15T16:06:16.402Z,98133.34
2022-10-15T16:09:29.961Z,98141.13
2022-10-15T16:12:41.352Z,98143.72
2022-10-15T16:15:51.257Z,98152.94
2022-10-15T16:19:04.682Z,98156.44
2022-10-15T16:22:17.361Z,98158.00
2022-10-15T16:25:29.290Z,98158.59
2022-10-15T16:28:41.434Z,98158.59
2022-10-15T16:31:53.797Z,98158.84
2022-10-15T16:35:03.722Z,98158.69
2022-10-15T16:38:13.649Z,98160.59
2022-10-15T16:41:23.588Z,98170.50
2022-10-15T16:44:35.373Z,98177.25
2022-10-15T16:47:45.418Z,98177.00
2022-10-15T16:51:00.937Z,98176.50
2022-10-15T16:54:13.916Z,98180.16
2022-10-15T16:57:23.763Z,98185.72
2022-10-15T17:00:35.019Z,98194.34
2022-10-15T17:03:46.250Z,98194.44
2022-10-15T17:06:56.311Z,98202.94
2022-10-15T17:10:10.971Z,98209.25
2022-10-15T17:13:31.618Z,98213.19
2022-10-15T17:16:50.072Z,98214.94
2022-10-15T17:19:59.915Z,98212.69
2022-10-15T17:23:10.123Z,98217.88
2022-10-15T17:26:23.200Z,98215.78
2022-10-15T17:29:33.877Z,98215.81
2022-10-15T17:32:45.167Z,98223.41
2022-10-15T17:35:55.061Z,98222.31
2022-10-15T17:39:05.802Z,98223.19
2022-10-15T17:42:18.760Z,98236.94
2022-10-15T17:45:31.271Z,98247.09
2022-10-15T17:48:42.637Z,98243.75
2022-10-15T17:51:55.736Z,98249.75
2022-10-15T17:55:12.203Z,98240.28
2022-10-15T17:58:22.087Z,98250.88
2022-10-15T18:01:56.697Z,98257.09
2022-10-15T18:05:06.325Z,98262.66
2022-10-15T18:08:17.680Z,98256.53
2022-10-15T18:11:29.976Z,98266.94
2022-10-15T18:14:39.806Z,98268.53
2022-10-15T18:17:50.147Z,98269.50
2022-10-15T18:21:02.048Z,98279.97
2022-10-15T18:24:15.103Z,98262.50
2022-10-15T18:27:25.429Z,98257.53
2022-10-15T18:30:44.322Z,98248.97
2022-10-15T18:33:57.206Z,98255.69
2022-10-15T18:37:11.462Z,98259.03
2022-10-15T18:40:21.345Z,98258.44
2022-10-15T18:43:33.307Z,98257.22
2022-10-15T18:46:44.959Z,98255.00
2022-10-15T18:49:55.366Z,98258.47
2022-10-15T18:53:20.479Z,98274.13
2022-10-15T18:56:31.492Z,98269.72
2022-10-15T18:59:41.387Z,98279.38
2022-10-15T19:02:51.249Z,98277.50
2022-10-15T19:06:01.122Z,98279.97
2022-10-15T19:09:13.901Z,98291.03
2022-10-15T19:12:24.395Z,98301.56
2022-10-15T19:15:36.231Z,98302.25
2022-10-15T19:18:46.089Z,98311.97
2022-10-15T19:21:58.776Z,98303.00
2022-10-15T19:25:10.345Z,98310.72
2022-10-15T19:28:20.291Z,98317.81
2022-10-15T19:31:33.616Z,98310.44
2022-10-15T19:34:43.539Z,98316.44
2022-10-15T19:37:53.366Z,98322.59
2022-10-15T19:41:05.034Z,98320.66
2022-10-15T19:44:17.076Z,98313.56
2022-10-15T19:47:27.390Z,98313.72
2022-10-15T19:50:38.958Z,98332.41
2022-10-15T19:53:56.379Z,98337.44
2022-10-15T19:57:10.195Z,98340.97
2022-10-15T20:00:23.576Z,98340.72
2022-10-15T20:06:53.847Z,98350.22
2022-10-15T20:10:03.696Z,98360.44
2022-10-15T20:13:18.818Z,98359.19
2022-10-15T20:16:32.690Z,98366.13
2022-10-15T20:19:43.042Z,98357.25
2022-10-15T20:22:55.287Z,98351.50
2022-10-15T20:26:06.877Z,98350.97
2022-10-15T20:29:18.057Z,98360.66
2022-10-15T20:32:34.826Z,98352.75
2022-10-15T20:35:50.474Z,98358.66
2022-10-15T20:39:01.347Z,98376.56
2022-10-15T20:42:11.534Z,98387.59
2022-10-15T20:45:31.644Z,98389.03
2022-10-15T20:48:42.950Z,98385.31
2022-10-15T20:52:00.366Z,98375.34
2022-10-15T20:55:11.103Z,98374.38
2022-10-15T20:58:20.997Z,98383.63
2022-10-15T21:01:32.346Z,98389.44
2022-10-15T21:04:47.611Z,98381.56
2022-10-15T21:07:58.524Z,98386.41
2022-10-15T21:11:12.373Z,98387.22
2022-10-15T21:14:22.240Z,98396.59
2022-10-15T21:17:33.359Z,98401.47
2022-10-15T21:20:43.298Z,98409.88
2022-10-15T21:23:55.790Z,98423.63
2022-10-15T21:27:10.232Z,98439.63
2022-10-15T21:30:22.152Z,98443.19
2022-10-15T21:33:33.455Z,98437.09
2022-10-15T21:36:46.402Z,98442.38
2022-10-15T21:43:19.987Z,98445.44
2022-10-15T21:46:30.552Z,98447.22
2022-10-15T21:49:42.054Z,98440.28
2022-10-15T21:52:52.012Z,98443.00
2022-10-15T21:56:03.255Z,98426.22
2022-10-15T21:59:15.386Z,98439.22
2022-10-15T22:02:27.575Z,98446.19
2022-10-15T22:05:39.908Z,98446.22
2022-10-15T22:08:50.132Z,98458.47
2022-10-15T22:11:59.974Z,98459.25
2022-10-15T22:15:12.643Z,98454.22
2022-10-15T22:18:22.456Z,98444.72
2022-10-15T22:21:47.515Z,98454.19
2022-10-15T22:24:59.672Z,98456.81
2022-10-15T22:28:09.598Z,98452.38
2022-10-15T22:31:19.622Z,98458.22
2022-10-15T22:34:31.560Z,98445.28
2022-10-15T22:37:46.104Z,98454.72
2022-10-15T22:40:56.416Z,98450.47
2022-10-15T22:44:09.246Z,98463.41
2022-10-15T22:47:19.132Z,98471.16
2022-10-15T22:50:29.029Z,98462.41
2022-10-15T22:53:42.905Z,98467.59
2022-10-15T22:56:53.423Z,98456.75
2022-10-15T23:00:06.033Z,98468.00
2022-10-15T23:03:15.883Z,98463.06
2022-10-15T23:06:26.820Z,98471.69
2022-10-15T23:09:37.961Z,98471.63
2022-10-15T23:12:50.199Z,98474.91
2022-10-15T23:16:06.852Z,98483.59
